Time;durP1;ratioP1;P1;durP2;ratioP2;P2;SDS_P1;SDS_P2;PMS_P1;PMS_P2;Temp;Humidity;BMP_temperature;BMP_pressure;BME280_temperature;BME280_humidity;BME280_pressure;Samples;Min_cycle;Max_cycle;Signal;HPM_P1;HPM_P2
2022/07/03 00:02:18;;;;;;;;;;;;;;;17.41;84.48;100016.75;5012847;28;842;-65
2022/07/03 00:04:44;;;;;;;;;;;;;;;17.43;84.88;100019.91;5012857;28;850;-65
2022/07/03 00:07:11;;;;;;;;;;;;;;;17.46;84.92;100012.63;5013142;28;851;-65
2022/07/03 00:09:38;;;;;;;;;;;;;;;17.48;84.89;100010.19;4995232;28;1192;-66
2022/07/03 00:12:05;;;;;;;;;;;;;;;17.49;85.16;100014.53;5012086;28;873;-65
2022/07/03 00:14:32;;;;;;;;;;;;;;;17.50;85.44;100005.69;5012750;28;857;-66
2022/07/03 00:16:59;;;;;;;;;;;;;;;17.49;85.69;100004.13;5012643;28;1914;-66
2022/07/03 00:19:25;;;;;;;;;;;;;;;17.43;86.18;100003.13;5012615;28;843;-65
2022/07/03 00:21:52;;;;;;;;;;;;;;;17.40;86.59;99992.06;4995100;28;1307;-65
2022/07/03 00:24:24;;;;;;;;;;;;;;;17.35;86.92;99999.75;5013228;28;759;-66
2022/07/03 00:26:52;;;;;;;;;;;;;;;17.39;86.62;99996.88;5012328;28;877;-66
2022/07/03 00:29:22;;;;;;;;;;;;;;;17.42;86.52;99992.38;5012367;28;791;-65
2022/07/03 00:31:49;;;;;;;;;;;;;;;17.42;86.49;99992.38;5012538;28;893;-66
2022/07/03 00:34:17;;;;;;;;;;;;;;;17.41;86.48;99988.00;5012320;28;784;-66
2022/07/03 00:36:45;;;;;;;;;;;;;;;17.39;87.08;99988.47;5012094;28;1946;-66
2022/07/03 00:39:12;;;;;;;;;;;;;;;17.37;87.16;99984.53;5012241;28;874;-65
2022/07/03 00:41:38;;;;;;;;;;;;;;;17.32;87.35;99989.44;5012210;28;819;-65
2022/07/03 00:44:05;;;;;;;;;;;;;;;17.31;87.34;99978.75;5011960;28;1394;-65
2022/07/03 00:46:32;;;;;;;;;;;;;;;17.29;87.51;99984.78;5012130;28;870;-66
2022/07/03 00:48:59;;;;;;;;;;;;;;;17.24;87.34;99984.53;5011975;28;815;-66
2022/07/03 00:51:27;;;;;;;;;;;;;;;17.22;87.04;99981.38;5012063;28;873;-65
2022/07/03 00:53:57;;;;;;;;;;;;;;;17.20;86.70;99984.66;5012028;28;875;-65
2022/07/03 00:56:25;;;;;;;;;;;;;;;17.15;86.27;99974.00;5012001;28;843;-66
2022/07/03 00:58:57;;;;;;;;;;;;;;;17.12;86.03;99978.47;5011816;28;1967;-65
2022/07/03 01:01:35;;;;;;;;;;;;;;;17.05;85.79;99975.91;5012063;28;866;-65
2022/07/03 01:04:13;;;;;;;;;;;;;;;16.99;85.79;99977.66;5011850;28;866;-66
2022/07/03 01:06:46;;;;;;;;;;;;;;;17.03;85.42;99977.56;5012170;28;812;-66
2022/07/03 01:09:13;;;;;;;;;;;;;;;17.05;85.66;99977.91;5011849;28;791;-65
2022/07/03 01:11:53;;;;;;;;;;;;;;;17.04;85.38;99968.72;5009501;28;1368;-65
2022/07/03 01:14:22;;;;;;;;;;;;;;;17.03;85.43;99978.34;5011866;28;878;-65
2022/07/03 01:17:05;;;;;;;;;;;;;;;17.07;85.14;99973.44;5011696;28;1886;-66
2022/07/03 01:19:37;;;;;;;;;;;;;;;17.14;85.48;99978.81;5011754;28;874;-66
2022/07/03 01:22:13;;;;;;;;;;;;;;;17.20;85.22;99976.28;5011881;28;862;-66
2022/07/03 01:24:58;;;;;;;;;;;;;;;17.28;85.20;99974.84;4997164;28;1347;-65
2022/07/03 01:27:28;;;;;;;;;;;;;;;17.38;84.83;99969.38;5015758;28;835;-66
2022/07/03 01:30:15;;;;;;;;;;;;;;;17.44;84.33;99970.38;5015611;28;908;-65
2022/07/03 01:32:44;;;;;;;;;;;;;;;17.42;84.07;99976.41;4998036;28;987;-65
2022/07/03 01:35:13;;;;;;;;;;;;;;;17.42;84.09;99975.63;5015588;28;865;-65
2022/07/03 01:37:40;;;;;;;;;;;;;;;17.40;84.02;99978.84;5015386;28;1949;-66
2022/07/03 01:40:07;;;;;;;;;;;;;;;17.34;84.13;99978.63;5015511;28;822;-65
2022/07/03 01:42:38;;;;;;;;;;;;;;;17.31;84.34;99976.72;5015289;28;1215;-65
2022/07/03 01:45:05;;;;;;;;;;;;;;;17.30;84.32;99974.38;5015381;28;827;-65
2022/07/03 01:47:34;;;;;;;;;;;;;;;17.25;84.33;99974.94;5015238;28;871;-65
2022/07/03 01:50:01;;;;;;;;;;;;;;;17.20;84.76;99979.06;5015408;28;862;-65
2022/07/03 01:52:31;;;;;;;;;;;;;;;17.19;84.90;99979.50;5015262;28;901;-65
2022/07/03 01:55:00;;;;;;;;;;;;;;;17.18;85.28;99987.09;4997717;28;882;-65
2022/07/03 01:57:36;;;;;;;;;;;;;;;17.09;85.29;99992.53;4997512;28;1910;-65
2022/07/03 02:00:03;;;;;;;;;;;;;;;16.90;85.75;99986.69;5015133;28;810;-65
2022/07/03 02:02:33;;;;;;;;;;;;;;;16.78;86.16;99990.19;5015093;28;795;-65
2022/07/03 02:05:13;;;;;;;;;;;;;;;16.65;86.44;99980.97;5015156;28;815;-65
2022/07/03 02:07:42;;;;;;;;;;;;;;;16.50;87.19;99989.72;5015043;28;811;-65
2022/07/03 02:10:09;;;;;;;;;;;;;;;16.42;87.46;99991.13;5014912;28;795;-65
2022/07/03 02:12:45;;;;;;;;;;;;;;;16.47;87.34;99990.59;5014974;28;842;-66
2022/07/03 02:15:15;;;;;;;;;;;;;;;16.41;87.16;99991.56;5014823;28;831;-65
2022/07/03 02:17:46;;;;;;;;;;;;;;;16.25;87.79;99990.34;5014801;28;1924;-65
2022/07/03 02:20:14;;;;;;;;;;;;;;;16.12;88.21;99993.06;5014834;28;850;-65
2022/07/03 02:22:45;;;;;;;;;;;;;;;16.00;88.55;99996.56;5014645;28;862;-65
2022/07/03 02:25:34;;;;;;;;;;;;;;;15.90;88.83;99998.38;5014724;28;815;-66
2022/07/03 02:28:06;;;;;;;;;;;;;;;15.87;89.04;99990.09;5006680;28;1078;-66
2022/07/03 02:30:35;;;;;;;;;;;;;;;15.83;89.14;99986.59;5014547;28;902;-66
2022/07/03 02:33:02;;;;;;;;;;;;;;;15.76;89.16;99993.13;5014944;28;1014;-66
2022/07/03 02:35:29;;;;;;;;;;;;;;;15.64;89.79;99988.19;5013681;28;839;-66
2022/07/03 02:38:04;;;;;;;;;;;;;;;15.67;89.99;99984.56;5014520;28;1951;-66
2022/07/03 02:40:34;;;;;;;;;;;;;;;15.69;89.89;99984.91;5014331;28;872;-66
2022/07/03 02:43:01;;;;;;;;;;;;;;;15.74;89.89;99987.19;5014237;28;1417;-66
2022/07/03 02:45:44;;;;;;;;;;;;;;;15.68;89.87;99992.50;4996527;28;1288;-66
2022/07/03 02:48:17;;;;;;;;;;;;;;;15.60;90.28;99996.66;5014483;28;835;-66
2022/07/03 02:50:46;;;;;;;;;;;;;;;15.59;90.68;99985.94;5014215;28;823;-66
2022/07/03 02:53:19;;;;;;;;;;;;;;;15.63;90.27;99993.00;5014183;28;858;-66
2022/07/03 02:55:46;;;;;;;;;;;;;;;15.66;90.44;99992.13;5014130;28;878;-66
2022/07/03 02:58:31;;;;;;;;;;;;;;;15.78;90.27;99992.69;5010147;28;1899;-66
2022/07/03 03:01:04;;;;;;;;;;;;;;;15.94;90.00;99992.72;5014297;28;831;-66
2022/07/03 03:03:32;;;;;;;;;;;;;;;16.07;89.20;99990.81;5013889;28;834;-66
2022/07/03 03:06:03;;;;;;;;;;;;;;;16.21;88.95;99991.66;5011901;28;1446;-66
2022/07/03 03:08:35;;;;;;;;;;;;;;;16.30;88.41;99989.03;5013853;28;871;-66
2022/07/03 03:11:09;;;;;;;;;;;;;;;16.26;88.37;99993.94;5013800;28;803;-66
2022/07/03 03:13:36;;;;;;;;;;;;;;;16.26;88.29;99997.50;5013762;28;831;-66
2022/07/03 03:16:07;;;;;;;;;;;;;;;16.29;87.83;99996.63;5013613;28;866;-66
2022/07/03 03:18:37;;;;;;;;;;;;;;;16.35;87.73;99993.31;5013652;28;1943;-66
2022/07/03 03:21:06;;;;;;;;;;;;;;;16.37;87.81;100002.81;5013898;28;893;-66
2022/07/03 03:23:48;;;;;;;;;;;;;;;16.45;87.53;100003.41;5013660;28;814;-66
2022/07/03 03:26:18;;;;;;;;;;;;;;;16.67;86.91;100000.84;5013496;28;924;-66
2022/07/03 03:28:44;;;;;;;;;;;;;;;16.98;86.03;100004.00;5013766;28;842;-66
2022/07/03 03:31:12;;;;;;;;;;;;;;;17.24;84.87;99999.28;5013625;28;1010;-66
2022/07/03 03:33:43;;;;;;;;;;;;;;;17.42;84.19;100004.34;5014001;28;767;-66
2022/07/03 03:36:13;;;;;;;;;;;;;;;17.61;83.36;100002.56;5013298;28;859;-66
2022/07/03 03:38:40;;;;;;;;;;;;;;;17.82;82.80;99989.97;4995610;28;1945;-65
2022/07/03 03:41:07;;;;;;;;;;;;;;;17.94;82.51;99996.78;5013185;28;849;-65
2022/07/03 03:43:35;;;;;;;;;;;;;;;18.04;82.30;99994.88;5013077;28;1230;-65
2022/07/03 03:46:02;;;;;;;;;;;;;;;18.07;82.20;100003.16;5012929;28;838;-65
2022/07/03 03:48:29;;;;;;;;;;;;;;;18.04;82.81;100000.47;5012213;28;968;-65
2022/07/03 03:50:56;;;;;;;;;;;;;;;17.98;83.11;99996.69;5013089;28;1012;-65
2022/07/03 03:53:24;;;;;;;;;;;;;;;17.95;83.72;100010.31;5012964;28;807;-65
2022/07/03 03:56:04;;;;;;;;;;;;;;;17.93;84.33;100012.78;5013024;28;779;-65
2022/07/03 03:58:32;;;;;;;;;;;;;;;18.00;84.67;100011.00;5013073;28;1906;-65
2022/07/03 04:01:02;;;;;;;;;;;;;;;18.07;84.72;100005.16;5013080;28;902;-66
2022/07/03 04:03:30;;;;;;;;;;;;;;;18.14;84.61;100025.31;5012872;28;827;-65
2022/07/03 04:05:57;;;;;;;;;;;;;;;18.28;84.53;100020.47;5012806;28;843;-65
2022/07/03 04:08:24;;;;;;;;;;;;;;;18.47;84.48;100027.81;5012809;28;795;-65
2022/07/03 04:10:51;;;;;;;;;;;;;;;18.65;84.23;100027.22;5012655;28;841;-65
2022/07/03 04:13:19;;;;;;;;;;;;;;;18.84;83.78;100033.78;5012628;28;780;-65
2022/07/03 04:15:46;;;;;;;;;;;;;;;19.03;83.84;100029.09;5012635;28;850;-64
2022/07/03 04:18:12;;;;;;;;;;;;;;;19.28;82.94;100022.59;5012534;28;1882;-64
2022/07/03 04:20:38;;;;;;;;;;;;;;;19.50;82.43;100022.56;5012631;28;854;-64
2022/07/03 04:23:05;;;;;;;;;;;;;;;19.73;81.41;100029.69;5012694;28;857;-64
2022/07/03 04:25:32;;;;;;;;;;;;;;;19.96;80.86;100033.25;5012524;28;802;-65
2022/07/03 04:27:58;;;;;;;;;;;;;;;20.15;80.03;100025.66;5012380;28;847;-64
2022/07/03 04:30:26;;;;;;;;;;;;;;;20.35;79.40;100022.44;5012399;28;806;-64
2022/07/03 04:32:52;;;;;;;;;;;;;;;20.53;78.83;100025.28;5012677;28;1019;-64
2022/07/03 04:35:19;;;;;;;;;;;;;;;20.75;78.89;100025.16;4994628;28;1323;-64
2022/07/03 04:37:45;;;;;;;;;;;;;;;20.95;78.43;100016.28;5012198;28;1870;-64
2022/07/03 04:40:12;;;;;;;;;;;;;;;21.14;77.45;100019.84;5012499;28;854;-64
2022/07/03 04:42:39;;;;;;;;;;;;;;;21.35;76.08;100020.13;4994337;28;1386;-64
2022/07/03 04:45:07;;;;;;;;;;;;;;;21.53;75.22;100019.31;5012068;28;874;-63
2022/07/03 04:47:34;;;;;;;;;;;;;;;21.68;74.46;100025.03;5012058;28;858;-63
2022/07/03 04:50:00;;;;;;;;;;;;;;;21.79;74.32;100026.09;5012113;28;811;-63
2022/07/03 04:52:26;;;;;;;;;;;;;;;21.87;74.18;100026.56;5011919;28;913;-63
2022/07/03 04:54:53;;;;;;;;;;;;;;;21.96;73.43;100022.91;5012218;28;823;-63
2022/07/03 04:57:19;;;;;;;;;;;;;;;22.13;72.67;100031.75;5012016;28;1977;-63
2022/07/03 04:59:46;;;;;;;;;;;;;;;22.27;72.07;100031.06;5012036;28;878;-63
2022/07/03 05:02:13;;;;;;;;;;;;;;;22.45;71.43;100020.94;5012132;28;847;-64
2022/07/03 05:04:40;;;;;;;;;;;;;;;22.59;70.12;100028.66;4994525;28;1392;-63
2022/07/03 05:07:06;;;;;;;;;;;;;;;22.76;69.34;100026.97;5012303;28;838;-63
2022/07/03 05:09:32;;;;;;;;;;;;;;;22.93;68.52;100016.03;5012192;28;799;-63
2022/07/03 05:11:59;;;;;;;;;;;;;;;23.11;67.59;100025.59;5012075;28;885;-63
2022/07/03 05:14:26;;;;;;;;;;;;;;;23.26;66.63;100020.78;5011636;28;802;-63
2022/07/03 05:16:53;;;;;;;;;;;;;;;23.41;65.43;100021.56;5011717;28;1890;-63
2022/07/03 05:19:18;;;;;;;;;;;;;;;23.64;64.86;100019.09;5012000;28;889;-63
2022/07/03 05:21:45;;;;;;;;;;;;;;;23.94;64.10;100019.06;4994181;28;1288;-63
2022/07/03 05:24:12;;;;;;;;;;;;;;;24.39;62.53;100014.09;4994091;28;1305;-63
2022/07/03 05:26:38;;;;;;;;;;;;;;;25.02;61.45;100025.63;5011663;28;831;-63
2022/07/03 05:29:04;;;;;;;;;;;;;;;25.59;58.80;100026.22;5011619;28;814;-63
2022/07/03 05:31:31;;;;;;;;;;;;;;;26.18;56.81;100019.97;5011727;28;1004;-63
2022/07/03 05:33:57;;;;;;;;;;;;;;;26.59;55.38;100027.41;5011634;28;811;-63
2022/07/03 05:36:24;;;;;;;;;;;;;;;26.77;54.82;100021.28;5011631;28;950;-63
2022/07/03 05:41:35;;;;;;;;;;;;;;;27.34;53.89;100030.72;5011953;28;649;-63
2022/07/03 05:44:01;;;;;;;;;;;;;;;27.61;52.34;100026.38;5011272;28;1202;-63
2022/07/03 05:46:28;;;;;;;;;;;;;;;27.82;53.06;100026.84;5011512;28;784;-63
2022/07/03 05:48:55;;;;;;;;;;;;;;;28.30;52.19;100022.16;4993894;28;1197;-63
2022/07/03 05:51:21;;;;;;;;;;;;;;;28.75;49.65;100022.00;5011487;28;874;-63
2022/07/03 05:53:48;;;;;;;;;;;;;;;29.33;49.07;100026.09;5011405;28;816;-63
2022/07/03 05:56:14;;;;;;;;;;;;;;;30.03;47.44;100029.41;5011410;28;894;-63
2022/07/03 05:58:41;;;;;;;;;;;;;;;30.27;45.72;100035.09;5011320;28;1993;-63
2022/07/03 06:01:08;;;;;;;;;;;;;;;30.93;44.19;100032.00;5011659;28;835;-63
2022/07/03 06:03:34;;;;;;;;;;;;;;;31.53;43.68;100038.66;5011423;28;787;-63
2022/07/03 06:06:01;;;;;;;;;;;;;;;32.02;41.38;100044.09;4993661;28;1308;-63
2022/07/03 06:08:27;;;;;;;;;;;;;;;32.63;41.38;100032.03;5011292;28;843;-63
2022/07/03 06:10:55;;;;;;;;;;;;;;;33.22;39.68;100031.78;5013180;28;862;-64
2022/07/03 06:13:22;;;;;;;;;;;;;;;33.47;38.51;100032.22;5014795;28;835;-64
2022/07/03 06:15:48;;;;;;;;;;;;;;;33.69;37.52;100036.63;5014924;28;803;-63
2022/07/03 06:18:15;;;;;;;;;;;;;;;34.49;36.29;100033.22;5014749;28;1940;-64
2022/07/03 06:20:42;;;;;;;;;;;;;;;35.08;35.75;100035.38;5014749;28;854;-63
2022/07/03 06:23:09;;;;;;;;;;;;;;;35.58;34.65;100036.66;5014959;28;819;-64
2022/07/03 06:25:35;;;;;;;;;;;;;;;35.26;33.82;100037.19;5014984;28;752;-63
2022/07/03 06:28:02;;;;;;;;;;;;;;;34.89;32.09;100039.38;5014660;28;866;-63
2022/07/03 06:30:29;;;;;;;;;;;;;;;35.01;32.50;100036.91;5014642;28;843;-63
2022/07/03 06:32:55;;;;;;;;;;;;;;;35.65;31.82;100038.03;5014970;28;915;-63
2022/07/03 06:35:22;;;;;;;;;;;;;;;36.13;30.45;100037.47;5014470;28;803;-64
2022/07/03 06:37:49;;;;;;;;;;;;;;;35.75;31.37;100047.63;4996797;28;1950;-63
2022/07/03 06:40:15;;;;;;;;;;;;;;;35.71;31.14;100052.22;5014444;28;871;-63
2022/07/03 06:42:42;;;;;;;;;;;;;;;36.19;31.36;100043.78;5014035;28;1134;-63
2022/07/03 06:45:09;;;;;;;;;;;;;;;36.15;30.39;100040.53;5014379;28;819;-63
2022/07/03 06:47:39;;;;;;;;;;;;;;;36.21;31.02;100038.22;5014229;28;851;-64
2022/07/03 06:50:07;;;;;;;;;;;;;;;36.19;28.93;100052.41;5014469;28;819;-64
2022/07/03 06:52:33;;;;;;;;;;;;;;;36.15;29.50;100038.41;4996590;28;1330;-64
2022/07/03 06:55:00;;;;;;;;;;;;;;;36.09;29.48;100037.06;5014116;28;823;-63
2022/07/03 06:57:27;;;;;;;;;;;;;;;36.18;29.76;100045.13;5013994;28;1906;-65
2022/07/03 06:59:53;;;;;;;;;;;;;;;36.55;29.20;100028.31;4996474;28;1212;-64
2022/07/03 07:02:20;;;;;;;;;;;;;;;36.56;29.39;100041.38;5014013;28;842;-65
2022/07/03 07:04:47;;;;;;;;;;;;;;;36.54;29.37;100035.44;5014040;28;839;-64
2022/07/03 07:07:15;;;;;;;;;;;;;;;37.04;27.81;100034.84;5013894;28;889;-64
2022/07/03 07:09:42;;;;;;;;;;;;;;;37.45;28.24;100027.72;5013891;28;799;-65
2022/07/03 07:12:09;;;;;;;;;;;;;;;37.34;28.60;100034.72;5013772;28;889;-65
2022/07/03 07:14:35;;;;;;;;;;;;;;;36.97;29.13;100040.06;4996231;28;1248;-65
2022/07/03 07:17:02;;;;;;;;;;;;;;;36.81;28.91;100040.72;5013663;28;1890;-65
2022/07/03 07:19:29;;;;;;;;;;;;;;;37.13;28.57;100040.03;5013985;28;866;-65
2022/07/03 07:21:54;;;;;;;;;;;;;;;37.44;28.00;100034.81;5013464;28;823;-66
2022/07/03 07:24:21;;;;;;;;;;;;;;;37.77;27.04;100029.78;5013562;28;807;-65
2022/07/03 07:26:47;;;;;;;;;;;;;;;37.95;27.77;100026.94;5013571;28;818;-66
2022/07/03 07:29:14;;;;;;;;;;;;;;;38.14;26.94;100029.28;5013841;28;870;-66
2022/07/03 07:31:41;;;;;;;;;;;;;;;38.10;27.34;100032.59;4996127;28;1248;-65
2022/07/03 07:34:08;;;;;;;;;;;;;;;37.78;26.54;100027.66;5013561;28;886;-65
2022/07/03 07:36:35;;;;;;;;;;;;;;;37.57;27.83;100033.78;4995950;28;1367;-66
2022/07/03 07:39:02;;;;;;;;;;;;;;;37.95;27.11;100024.81;5013441;28;1906;-66
2022/07/03 07:41:28;;;;;;;;;;;;;;;37.96;27.30;100035.00;5013528;28;808;-66
2022/07/03 07:43:55;;;;;;;;;;;;;;;37.94;26.88;100034.06;5013284;28;1312;-66
2022/07/03 07:49:25;;;;;;;;;;;;;;;37.32;27.74;100042.41;5013214;28;617;-66
2022/07/03 07:51:51;;;;;;;;;;;;;;;37.72;27.20;100041.56;5013071;28;870;-66
2022/07/03 07:54:18;;;;;;;;;;;;;;;38.33;27.09;100043.13;5013181;28;886;-66
2022/07/03 07:56:45;;;;;;;;;;;;;;;38.58;26.42;100040.94;5012964;28;800;-66
2022/07/03 07:59:12;;;;;;;;;;;;;;;38.65;25.90;100044.34;5012880;28;1967;-65
2022/07/03 08:07:09;;;;;;;;;;;;;;;38.29;25.96;100043.53;5012807;28;633;-66
2022/07/03 08:09:35;;;;;;;;;;;;;;;37.67;26.14;100042.56;4995066;28;857;-65
2022/07/03 08:12:02;;;;;;;;;;;;;;;38.12;27.00;100035.63;5012694;28;815;-66
2022/07/03 08:14:29;;;;;;;;;;;;;;;38.48;26.09;100039.31;5012682;28;819;-66
2022/07/03 08:16:55;;;;;;;;;;;;;;;38.06;26.53;100032.22;5012729;28;815;-66
2022/07/03 08:19:22;;;;;;;;;;;;;;;37.96;26.06;100046.53;5012577;28;823;-67
2022/07/03 08:22:14;;;;;;;;;;;;;;;37.67;26.08;100042.56;5012586;28;807;-66
2022/07/03 08:24:41;;;;;;;;;;;;;;;37.57;26.25;100040.31;5012515;28;800;-66
2022/07/03 08:27:10;;;;;;;;;;;;;;;37.48;27.35;100038.06;5009672;28;1337;-65
2022/07/03 08:29:38;;;;;;;;;;;;;;;37.69;26.21;100045.63;5012634;28;879;-65
2022/07/03 08:32:07;;;;;;;;;;;;;;;37.25;26.96;100054.75;5012591;28;1039;-65
2022/07/03 08:34:33;;;;;;;;;;;;;;;36.82;26.37;100045.16;5011994;28;819;-66
2022/07/03 08:37:00;;;;;;;;;;;;;;;37.03;27.24;100039.84;5012263;28;1952;-65
2022/07/03 08:39:27;;;;;;;;;;;;;;;37.66;26.17;100038.94;5012150;28;851;-65
2022/07/03 08:41:56;;;;;;;;;;;;;;;37.86;25.83;100031.25;5011980;28;1220;-66
2022/07/03 08:44:25;;;;;;;;;;;;;;;37.63;25.37;100042.22;5012199;28;795;-66
2022/07/03 08:46:55;;;;;;;;;;;;;;;37.33;26.46;100038.19;4994514;28;1347;-66
2022/07/03 08:49:23;;;;;;;;;;;;;;;36.76;26.19;100054.75;5012376;28;866;-66
2022/07/03 08:51:49;;;;;;;;;;;;;;;36.73;27.02;100050.16;5012331;28;858;-66
2022/07/03 08:54:16;;;;;;;;;;;;;;;36.93;27.80;100056.22;5012264;28;799;-66
2022/07/03 08:56:44;;;;;;;;;;;;;;;37.34;27.39;100052.00;5012389;28;858;-66
2022/07/03 08:59:10;;;;;;;;;;;;;;;36.72;26.74;100048.66;5012138;28;1922;-66
2022/07/03 09:01:41;;;;;;;;;;;;;;;36.36;28.09;100052.56;5012246;28;807;-65
2022/07/03 09:04:13;;;;;;;;;;;;;;;35.84;28.77;100048.38;5011970;28;800;-65
2022/07/03 09:09:42;;;;;;;;;;;;;;;35.56;28.96;100045.09;5011858;28;677;-66
2022/07/03 09:12:15;;;;;;;;;;;;;;;35.81;28.54;100047.44;5011920;28;803;-66
2022/07/03 09:14:42;;;;;;;;;;;;;;;35.73;29.70;100052.41;5011854;28;854;-65
2022/07/03 09:17:09;;;;;;;;;;;;;;;36.07;29.60;100052.00;4994419;28;1882;-66
2022/07/03 09:19:42;;;;;;;;;;;;;;;36.06;28.57;100043.94;5011746;28;850;-66
2022/07/03 09:22:28;;;;;;;;;;;;;;;35.67;28.66;100046.09;5011702;28;823;-66
2022/07/03 09:25:10;;;;;;;;;;;;;;;35.63;28.37;100043.56;5011294;28;1029;-65
2022/07/03 09:27:38;;;;;;;;;;;;;;;35.02;29.37;100040.56;5011678;28;955;-65
2022/07/03 09:30:06;;;;;;;;;;;;;;;34.76;29.95;100043.13;5011688;28;933;-66
2022/07/03 09:32:42;;;;;;;;;;;;;;;34.42;30.96;100046.19;5011984;28;932;-66
2022/07/03 09:38:42;;;;;;;;;;;;;;;34.49;30.77;100041.84;5011441;28;1898;-66
2022/07/03 09:44:28;;;;;;;;;;;;;;;33.32;31.16;100039.34;5008756;28;1189;-66
2022/07/03 09:50:07;;;;;;;;;;;;;;;32.89;33.52;100048.38;4995864;28;626;-66
2022/07/03 09:52:37;;;;;;;;;;;;;;;32.65;33.57;100037.97;4995741;28;875;-65
2022/07/03 09:55:10;;;;;;;;;;;;;;;32.64;34.63;100034.31;4995695;28;838;-66
2022/07/03 09:57:44;;;;;;;;;;;;;;;32.49;34.19;100028.38;4995966;28;1918;-66
2022/07/03 10:00:21;;;;;;;;;;;;;;;32.43;35.34;100027.72;4995553;28;838;-66
2022/07/03 10:34:38;;;;;;;;;;;;;;;32.37;35.88;99995.59;5014692;28;683;-70
2022/07/03 10:37:06;;;;;;;;;;;;;;;32.32;35.67;99997.25;5014380;28;1902;-71
2022/07/03 10:39:54;;;;;;;;;;;;;;;32.32;35.92;99994.38;5013180;28;1161;-67
2022/07/03 10:45:27;;;;;;;;;;;;;;;32.60;35.41;99985.25;4970225;28;1302;-69
2022/07/03 10:47:53;;;;;;;;;;;;;;;32.55;34.82;99984.03;5014344;28;901;-70
2022/07/03 10:50:22;;;;;;;;;;;;;;;32.71;35.31;99982.16;5014227;28;866;-71
2022/07/03 10:52:49;;;;;;;;;;;;;;;32.91;35.03;99980.66;5014221;28;846;-70
2022/07/03 10:55:15;;;;;;;;;;;;;;;33.18;35.26;99986.31;5014438;28;831;-70
2022/07/03 10:57:42;;;;;;;;;;;;;;;33.35;33.77;99989.53;5013780;28;1910;-69
2022/07/03 11:00:19;;;;;;;;;;;;;;;33.37;33.18;99980.38;5013981;28;783;-67
2022/07/03 11:02:47;;;;;;;;;;;;;;;33.39;32.64;99977.72;5014125;28;822;-69
2022/07/03 11:05:20;;;;;;;;;;;;;;;33.44;32.84;99979.69;5013964;28;822;-70
2022/07/03 11:07:53;;;;;;;;;;;;;;;33.70;33.67;99972.28;5014066;28;831;-71
2022/07/03 11:10:18;;;;;;;;;;;;;;;33.82;32.90;99976.41;5013861;28;936;-70
2022/07/03 11:12:56;;;;;;;;;;;;;;;33.93;33.12;99975.31;5013806;28;794;-69
2022/07/03 11:15:24;;;;;;;;;;;;;;;34.09;32.61;99979.03;5013715;28;825;-71
2022/07/03 11:18:08;;;;;;;;;;;;;;;34.29;32.47;99974.59;5013720;28;1879;-71
2022/07/03 11:20:54;;;;;;;;;;;;;;;34.78;32.39;99967.91;5013706;28;807;-71
2022/07/03 11:23:27;;;;;;;;;;;;;;;34.89;31.78;99972.56;5002988;28;1110;-71
2022/07/03 11:26:00;;;;;;;;;;;;;;;34.83;31.62;99966.22;5013567;28;878;-68
2022/07/03 11:28:29;;;;;;;;;;;;;;;34.41;30.98;99961.44;5013589;28;873;-69
2022/07/03 11:31:18;;;;;;;;;;;;;;;34.45;31.40;99958.97;5013325;28;888;-70
2022/07/03 11:33:56;;;;;;;;;;;;;;;35.09;31.38;99968.75;5028953;28;1241;-69
2022/07/03 11:36:21;;;;;;;;;;;;;;;35.08;30.05;99960.72;5033203;28;814;-68
2022/07/03 11:38:52;;;;;;;;;;;;;;;34.98;29.72;99963.41;5033097;28;1967;-70
2022/07/03 11:41:20;;;;;;;;;;;;;;;35.07;29.50;99964.94;5033204;28;885;-70
2022/07/03 11:43:47;;;;;;;;;;;;;;;35.27;29.25;99958.31;5033018;28;901;-69
2022/07/03 11:46:17;;;;;;;;;;;;;;;35.49;29.80;99967.50;5032985;28;858;-69
2022/07/03 11:48:43;;;;;;;;;;;;;;;35.76;28.87;99956.38;5033150;28;828;-70
2022/07/03 11:51:08;;;;;;;;;;;;;;;35.95;29.16;99959.63;5033137;28;823;-71
2022/07/03 11:53:38;;;;;;;;;;;;;;;36.34;28.20;99960.31;5032677;28;2193;-71
2022/07/03 11:56:08;;;;;;;;;;;;;;;36.79;27.82;99952.06;5032946;28;794;-69
2022/07/03 11:58:53;;;;;;;;;;;;;;;37.15;27.44;99960.31;5032745;28;811;-70
2022/07/03 12:01:25;;;;;;;;;;;;;;;37.58;26.61;99955.38;5014960;28;1335;-72
2022/07/03 12:03:51;;;;;;;;;;;;;;;37.55;26.55;99950.75;5032587;28;811;-70
2022/07/03 12:06:17;;;;;;;;;;;;;;;37.46;26.10;99948.53;5032593;28;858;-70
2022/07/03 12:08:46;;;;;;;;;;;;;;;37.77;25.82;99951.19;5031592;28;1894;-70
2022/07/03 12:11:18;;;;;;;;;;;;;;;37.94;25.74;99954.06;5032530;28;795;-72
2022/07/03 12:13:44;;;;;;;;;;;;;;;38.03;26.60;99951.88;5032734;28;874;-71
2022/07/03 12:16:09;;;;;;;;;;;;;;;38.23;25.30;99952.81;5032325;28;827;-69
2022/07/03 12:18:45;;;;;;;;;;;;;;;38.09;25.21;99961.03;5032396;28;857;-69
2022/07/03 12:21:11;;;;;;;;;;;;;;;37.47;24.84;99949.28;5032286;28;807;-69
2022/07/03 12:23:43;;;;;;;;;;;;;;;37.18;25.43;99961.25;5032252;28;878;-70
2022/07/03 12:26:09;;;;;;;;;;;;;;;37.52;24.64;99951.19;5032547;28;817;-69
2022/07/03 12:28:34;;;;;;;;;;;;;;;37.69;24.96;99951.25;5032777;28;1890;-70
2022/07/03 12:31:00;;;;;;;;;;;;;;;37.94;24.52;99948.31;5014367;28;1406;-70
2022/07/03 12:33:26;;;;;;;;;;;;;;;38.26;23.89;99940.84;5032021;28;1441;-70
2022/07/03 12:36:08;;;;;;;;;;;;;;;38.59;24.11;99947.19;5032064;28;798;-70
2022/07/03 12:38:36;;;;;;;;;;;;;;;38.50;23.01;99939.22;5032018;28;825;-71
2022/07/03 12:41:05;;;;;;;;;;;;;;;38.33;23.71;99937.09;5032013;28;909;-70
2022/07/03 12:43:41;;;;;;;;;;;;;;;38.29;23.47;99951.19;5032023;28;834;-69
2022/07/03 12:46:17;;;;;;;;;;;;;;;38.46;23.41;99946.75;5032189;28;850;-70
2022/07/03 12:48:47;;;;;;;;;;;;;;;38.54;22.92;99938.81;5031780;28;1991;-69
2022/07/03 12:51:15;;;;;;;;;;;;;;;38.42;23.22;99934.88;5031900;28;853;-71
2022/07/03 12:53:41;;;;;;;;;;;;;;;38.87;22.43;99938.53;5031793;28;810;-70
2022/07/03 12:56:20;;;;;;;;;;;;;;;38.85;22.20;99941.25;5031696;28;875;-69
2022/07/03 13:01:36;;;;;;;;;;;;;;;38.39;23.74;99933.97;5032519;28;640;-70
2022/07/03 13:04:02;;;;;;;;;;;;;;;38.95;22.86;99931.28;5031960;28;811;-70
2022/07/03 13:06:28;;;;;;;;;;;;;;;38.74;21.78;99934.66;5031743;28;830;-70
2022/07/03 13:08:58;;;;;;;;;;;;;;;38.59;21.49;99929.09;5031554;28;1973;-70
2022/07/03 13:11:31;;;;;;;;;;;;;;;38.36;22.18;99930.13;5031571;28;795;-70
2022/07/03 13:14:05;;;;;;;;;;;;;;;38.30;22.42;99934.63;5031544;28;991;-70
2022/07/03 13:16:36;;;;;;;;;;;;;;;38.28;21.41;99932.38;5031833;28;997;-69
2022/07/03 13:19:04;;;;;;;;;;;;;;;37.20;21.66;99932.63;5031337;28;823;-69
2022/07/03 13:21:29;;;;;;;;;;;;;;;37.04;21.32;99931.91;5013699;28;1285;-69
2022/07/03 13:23:56;;;;;;;;;;;;;;;36.92;21.50;99930.88;5031602;28;834;-69
2022/07/03 13:26:21;;;;;;;;;;;;;;;37.56;21.09;99931.34;5031796;28;799;-69
2022/07/03 13:28:47;;;;;;;;;;;;;;;37.96;20.91;99928.28;5031389;28;1895;-71
2022/07/03 13:31:12;;;;;;;;;;;;;;;38.13;20.90;99926.75;5031378;28;1057;-71
2022/07/03 13:33:38;;;;;;;;;;;;;;;37.87;20.38;99928.94;5031232;28;1361;-69
2022/07/03 13:36:04;;;;;;;;;;;;;;;37.35;20.61;99929.59;5031416;28;901;-70
2022/07/03 13:38:30;;;;;;;;;;;;;;;36.95;21.33;99927.56;5031399;28;947;-70
2022/07/03 13:40:56;;;;;;;;;;;;;;;36.81;21.39;99919.78;5013578;28;1183;-70
2022/07/03 13:43:21;;;;;;;;;;;;;;;36.81;21.89;99922.66;5031269;28;811;-69
2022/07/03 13:45:47;;;;;;;;;;;;;;;35.62;21.95;99927.06;5031253;28;814;-69
2022/07/03 13:48:13;;;;;;;;;;;;;;;34.68;23.26;99929.66;5031109;28;1973;-71
2022/07/03 13:50:41;;;;;;;;;;;;;;;34.26;23.83;99926.97;5013469;28;1200;-70
2022/07/03 13:53:06;;;;;;;;;;;;;;;34.06;23.67;99917.09;5031122;28;873;-69
2022/07/03 13:55:35;;;;;;;;;;;;;;;34.18;24.54;99926.91;5031501;28;791;-71
2022/07/03 13:58:06;;;;;;;;;;;;;;;34.16;24.12;99927.50;5031080;28;866;-68
2022/07/03 14:00:31;;;;;;;;;;;;;;;33.60;23.76;99923.28;5031150;28;897;-68
2022/07/03 14:02:57;;;;;;;;;;;;;;;33.27;23.84;99928.56;5031136;28;814;-69
2022/07/03 14:05:23;;;;;;;;;;;;;;;33.21;24.05;99927.16;5031103;28;870;-69
2022/07/03 14:07:48;;;;;;;;;;;;;;;33.08;24.20;99925.13;5031010;28;1886;-68
2022/07/03 14:10:14;;;;;;;;;;;;;;;33.11;25.11;99924.78;5031041;28;842;-69
2022/07/03 14:12:40;;;;;;;;;;;;;;;33.21;23.76;99919.34;5031034;28;814;-69